Informações Meteorológicas
METAR FOR SBCT
ADDS - METARS form results

(2256 UTC 16 January 2018)
Data provider http://aviationweather.gov/adds/metars/
 
METAR text: SBCT 162247Z 08008KT 5000 -RA BR BKN009 BKN030 20/19 Q1019 RERA
Conditions at: SBCT (CURITIBA/AFONSO , BR) observed 2247 UTC 16 January 2018
Temperature: 20.0°C (68°F)
Dewpoint: 19.0°C (66°F) [RH = 94%]
Pressure (altimeter): 30.09 inches Hg (1019.0 mb)
Winds: from the E (80 degrees) at 9 MPH (8 knots; 4.2 m/s)
Visibility: 3 miles (5 km)
Ceiling: 900 feet AGL
Clouds: broken clouds at 900 feet AGL
broken clouds at 3000 feet AGL
Weather: -RA BR  (light rain, mist)

METAR text: SBCT 162215Z 08009KT 2100 +RA BR OVC009 20/19 Q1018
Conditions at: SBCT (CURITIBA/AFONSO , BR) observed 2215 UTC 16 January 2018
Temperature: 20.0°C (68°F)
Dewpoint: 19.0°C (66°F) [RH = 94%]
Pressure (altimeter): 30.06 inches Hg (1018.0 mb)
Winds: from the E (80 degrees) at 10 MPH (9 knots; 4.7 m/s)
Visibility: 1.30 miles (2.09 km)
Ceiling: 900 feet AGL
Clouds: overcast cloud deck at 900 feet AGL
Weather: +RA BR  (heavy rain, mist)

METAR text: SBCT 162207Z 06010KT 2500 RA OVC009 20/19 Q1018
Conditions at: SBCT (CURITIBA/AFONSO , BR) observed 2207 UTC 16 January 2018
Temperature: 20.0°C (68°F)
Dewpoint: 19.0°C (66°F) [RH = 94%]
Pressure (altimeter): 30.06 inches Hg (1018.0 mb)
Winds: from the ENE (60 degrees) at 12 MPH (10 knots; 5.2 m/s)
Visibility: 1.55 miles (2.49 km)
Ceiling: 900 feet AGL
Clouds: overcast cloud deck at 900 feet AGL
Weather: RA  (rain)

METAR text: SBCT 162200Z 03010KT 4100 2000NW -RA BR OVC009 20/19 Q1018
Conditions at: SBCT (CURITIBA/AFONSO , BR) observed 2200 UTC 16 January 2018
Temperature: 20.0°C (68°F)
Dewpoint: 19.0°C (66°F) [RH = 94%]
Pressure (altimeter): 30.06 inches Hg (1018.0 mb)
Winds: from the NNE (30 degrees) at 12 MPH (10 knots; 5.2 m/s)
Visibility: 2.55 miles (4.10 km)
Ceiling: 900 feet AGL
Clouds: overcast cloud deck at 900 feet AGL
Weather: -RA BR  (light rain, mist)

Forecast for: SBCT (CURITIBA/AFONSO , BR)
Text: TAF SBCT 162100Z 1700/1724 31007KT 9999 SCT020 FEW030TCU TN18/1708Z T X27/1718Z
Forecast period: 0000 UTC 17 January 2018 to 0000 UTC 18 January 2018
Forecast type: FROM: standard forecast or significant change
Winds: from the NW (310 degrees) at 8 MPH (7 knots; 3.6 m/s)
Visibility: 6 or more miles (10+ km)
Clouds: scattered clouds at 2000 feet AGL
few clouds at 3000 feet AGL
Weather: no significant weather forecast for this period
Text: BECMG 1700/1702 05005KT BKN010
Forecast period: 0000 to 1000 UTC 17 January 2018
Forecast type: BECOMING: Conditions expected to become as follows by 0200 UTC 17 January 2018
Winds: from the NE (50 degrees) at 6 MPH (5 knots; 2.6 m/s)
Visibility: 6 or more miles (10+ km)
Ceiling: 1000 feet AGL
Clouds: broken clouds at 1000 feet AGL
Weather: no significant weather forecast for this period
Text: PROB40
Forecast period: 0200 to 1000 UTC 17 January 2018
Forecast type: TEMPORARY: The following changes expected for less than half the time period
Visibility: 3 miles (5 km)
Ceiling: 800 feet AGL
Clouds: broken clouds at 800 feet AGL
Weather: RA DZ BR  (rain, drizzle, mist)
Text: TEMPO 1702/1710 5000 RADZ BR B KN005 BKN008
Forecast period: 1000 to 1500 UTC 17 January 2018
Forecast type: BECOMING: Conditions expected to become as follows by 1200 UTC 17 January 2018
Winds: from the NNE (30 degrees) at 9 MPH (8 knots; 4.2 m/s)
Visibility: 6 or more miles (10+ km)
Clouds: scattered clouds at 3000 feet AGL
Weather: no significant weather forecast for this period
Text: BECMG 1710/1712 03008KT SCT030
Forecast period: 1500 UTC 17 January 2018 to 0000 UTC 18 January 2018
Forecast type: BECOMING: Conditions expected to become as follows by 1800 UTC 17 January 2018
Winds: from the N (10 degrees) at 12 MPH (10 knots; 5.2 m/s)
Visibility: 5 miles (8 km)
Ceiling: 2000 feet AGL
Clouds: broken clouds at 2000 feet AGL
few clouds at 4000 feet AGL
Weather: RA  (rain)

 Mapa do Aeroporto

 INFORMAÇÕES DA PISTA
Pista 11 Tamanho da pista 5906 ft Largura da pista 148 ft
Elevação da pista 0 ft Ranhura da pista 0 ft Proa da pista 0
Pista 29 Tamanho da pista 5906 ft Largura da pista 148 ft
Elevação da pista 0 ft Ranhura da pista 0 ft Proa da pista 0
Pista 15 Tamanho da pista 7267 ft Largura da pista 148 ft
Elevação da pista 0 ft Ranhura da pista 0 ft Proa da pista 0
Pista 33 Tamanho da pista 7267 ft Largura da pista 148 ft
Elevação da pista 0 ft Ranhura da pista 0 ft Proa da pista 0

 Frequências Do Aeroporto
Tipo APP Nome CURITIBA A Frequência 119.95 MHZ
Tipo ATIS Nome ATIS Frequência 127.8 MHZ
Tipo GND Nome GND Frequência 121.9 MHZ
Tipo TWR Nome CURITIBA T Frequência 118.55 MHZ

 AUXÍLIOS DE NAVEGAÇÃO PRÓXIMOS AO AEROPORTO
Tipo NDB Nome Curitiba Frequência 390 KHZ
Tipo VOR-DME Nome Curitiba Frequência 116500 KHZ
Tipo NDB Nome Pinhais Frequência 255 KHZ



Powered by Virtual Airlines Manager [v2.6.1]